Time;durP1;ratioP1;P1;durP2;ratioP2;P2;SDS_P1;SDS_P2;PMS_P1;PMS_P2;Temp;Humidity;BMP_temperature;BMP_pressure;BME280_temperature;BME280_humidity;BME280_pressure;Samples;Min_cycle;Max_cycle;Signal;HPM_P1;HPM_P2
2023/09/24 00:01:38;;;;;;;5.20;2.08;;;12.10;99.90;;;;;;4986836;28;20483;-70
2023/09/24 00:04:04;;;;;;;5.47;2.13;;;12.00;99.90;;;;;;4990997;28;20115;-70
2023/09/24 00:06:30;;;;;;;4.97;2.03;;;11.90;99.90;;;;;;4997703;28;20485;-70
2023/09/24 00:08:56;;;;;;;5.45;2.13;;;11.90;99.90;;;;;;4996642;28;20097;-70
2023/09/24 00:11:21;;;;;;;7.97;1.95;;;11.90;99.90;;;;;;4997360;28;20041;-70
2023/09/24 00:13:47;;;;;;;5.97;1.85;;;11.80;99.90;;;;;;4996797;28;20402;-71
2023/09/24 00:16:14;;;;;;;7.05;2.13;;;11.70;99.90;;;;;;5014337;28;20444;-71
2023/09/24 00:18:40;;;;;;;7.32;2.28;;;11.70;99.90;;;;;;4997464;28;20065;-71
2023/09/24 00:21:06;;;;;;;5.45;1.80;;;11.70;99.90;;;;;;4996599;28;20046;-71
2023/09/24 00:23:38;;;;;;;8.20;2.10;;;11.70;99.90;;;;;;4993271;28;20410;-70
2023/09/24 00:26:04;;;;;;;7.43;2.47;;;11.60;99.90;;;;;;4977607;28;20383;-70
2023/09/24 00:28:30;;;;;;;5.32;1.67;;;11.70;99.90;;;;;;4977408;28;20057;-70
2023/09/24 00:30:55;;;;;;;5.20;1.83;;;11.60;99.90;;;;;;4976754;28;20038;-70
2023/09/24 00:33:24;;;;;;;6.07;2.05;;;11.60;99.90;;;;;;4977606;28;20081;-70
2023/09/24 00:35:51;;;;;;;8.75;2.00;;;11.70;99.90;;;;;;4976549;28;20070;-71
2023/09/24 00:38:20;;;;;;;9.52;1.83;;;11.70;99.90;;;;;;4977414;28;20050;-71
2023/09/24 00:40:46;;;;;;;6.50;2.00;;;11.70;99.90;;;;;;4994678;28;20042;-70
2023/09/24 00:43:28;;;;;;;6.88;2.00;;;11.70;99.90;;;;;;4976635;28;20046;-71
2023/09/24 00:45:59;;;;;;;5.35;2.03;;;11.70;99.90;;;;;;4976610;28;20056;-70
2023/09/24 00:48:28;;;;;;;5.82;1.77;;;11.60;99.90;;;;;;4976920;28;20050;-70
2023/09/24 00:50:58;;;;;;;5.07;1.80;;;12.10;99.90;;;;;;4976154;28;20090;-70
2023/09/24 00:53:28;;;;;;;4.60;1.98;;;11.70;99.90;;;;;;4977235;28;20406;-70
2023/09/24 00:55:56;;;;;;;5.53;1.65;;;11.70;99.90;;;;;;4994164;28;20038;-71
2023/09/24 00:58:23;;;;;;;5.93;2.17;;;11.70;99.90;;;;;;4976340;28;20053;-70
2023/09/24 01:00:51;;;;;;;4.65;1.70;;;11.60;99.90;;;;;;4958649;28;20066;-71
2023/09/24 01:03:18;;;;;;;6.38;1.80;;;11.70;99.90;;;;;;4971418;28;20529;-70
2023/09/24 01:05:49;;;;;;;6.35;1.60;;;11.70;99.90;;;;;;4968948;28;20054;-70
2023/09/24 01:08:19;;;;;;;7.15;1.80;;;11.60;99.90;;;;;;4976272;28;20465;-70
2023/09/24 01:10:46;;;;;;;4.85;1.95;;;11.50;99.90;;;;;;4976638;28;20443;-70
2023/09/24 01:13:15;;;;;;;5.22;1.73;;;11.50;99.90;;;;;;4976586;28;20047;-70
2023/09/24 01:15:43;;;;;;;4.38;1.45;;;11.50;99.90;;;;;;4976377;28;20121;-69
2023/09/24 01:18:08;;;;;;;4.88;1.70;;;11.60;99.90;;;;;;4975295;28;20046;-70
2023/09/24 01:20:36;;;;;;;6.40;1.77;;;11.40;99.90;;;;;;4976673;28;20050;-69
2023/09/24 01:23:05;;;;;;;8.80;1.60;;;11.50;99.90;;;;;;4982883;28;20053;-69
2023/09/24 01:25:35;;;;;;;6.38;1.73;;;11.30;99.90;;;;;;4994985;28;20049;-70
2023/09/24 01:28:03;;;;;;;4.25;1.63;;;11.30;99.90;;;;;;4995902;28;20042;-70
2023/09/24 01:30:29;;;;;;;8.93;1.90;;;11.30;99.90;;;;;;4995981;28;20061;-70
2023/09/24 01:32:58;;;;;;;6.28;1.90;;;11.40;99.90;;;;;;4994608;28;20545;-69
2023/09/24 01:35:28;;;;;;;6.53;1.75;;;11.30;99.90;;;;;;4995910;28;20054;-70
2023/09/24 01:38:05;;;;;;;5.47;1.55;;;11.40;99.90;;;;;;4995399;28;20556;-70
2023/09/24 01:40:37;;;;;;;5.05;1.90;;;11.40;99.90;;;;;;4993859;28;20477;-70
2023/09/24 01:43:07;;;;;;;8.25;1.77;;;12.50;99.90;;;;;;4995246;28;20050;-70
2023/09/24 01:45:34;;;;;;;7.43;1.40;;;11.50;99.90;;;;;;4996029;28;20124;-70
2023/09/24 01:48:03;;;;;;;5.43;1.92;;;11.50;99.90;;;;;;4994321;28;20045;-69
2023/09/24 01:50:32;;;;;;;5.53;1.77;;;11.60;99.90;;;;;;5013456;28;20156;-70
2023/09/24 01:52:58;;;;;;;6.25;1.70;;;11.70;99.90;;;;;;4994805;28;20609;-70
2023/09/24 01:55:28;;;;;;;6.55;1.80;;;11.60;99.90;;;;;;4988343;28;20129;-69
2023/09/24 01:57:55;;;;;;;4.43;1.40;;;11.60;99.90;;;;;;4987243;28;20048;-70
2023/09/24 02:00:25;;;;;;;5.57;1.77;;;11.70;99.90;;;;;;4994353;28;20493;-70
2023/09/24 02:03:06;;;;;;;4.75;2.00;;;11.70;99.90;;;;;;4995386;28;20045;-70
2023/09/24 02:05:32;;;;;;;5.90;1.77;;;11.80;99.90;;;;;;4994898;28;20116;-70
2023/09/24 02:07:59;;;;;;;5.85;2.00;;;11.80;99.90;;;;;;4993527;28;20052;-70
2023/09/24 02:10:25;;;;;;;8.00;1.92;;;11.90;99.90;;;;;;4995099;28;20080;-70
2023/09/24 02:12:52;;;;;;;4.57;1.80;;;12.90;99.90;;;;;;4994863;28;20056;-70
2023/09/24 02:15:18;;;;;;;7.25;2.08;;;12.10;99.90;;;;;;4994793;28;20500;-70
2023/09/24 02:17:47;;;;;;;7.20;1.90;;;12.10;99.90;;;;;;4995313;28;20117;-70
2023/09/24 02:20:23;;;;;;;7.95;2.10;;;12.20;99.90;;;;;;5012773;28;20366;-70
2023/09/24 02:22:56;;;;;;;6.78;2.13;;;12.20;99.90;;;;;;4993937;28;20536;-70
2023/09/24 02:25:26;;;;;;;5.53;2.38;;;12.30;99.90;;;;;;4975361;28;20058;-71
2023/09/24 02:27:52;;;;;;;5.80;2.42;;;12.50;99.90;;;;;;4975671;28;20406;-70
2023/09/24 02:30:19;;;;;;;7.32;2.70;;;12.30;99.90;;;;;;5008565;28;20041;-70
2023/09/24 02:32:45;;;;;;;7.55;2.80;;;12.40;99.90;;;;;;4995136;28;20091;-70
2023/09/24 02:35:12;;;;;;;5.55;2.80;;;12.40;99.90;;;;;;4993996;28;20133;-70
2023/09/24 02:37:44;;;;;;;8.48;2.65;;;12.50;99.90;;;;;;4995078;28;20474;-70
2023/09/24 02:40:15;;;;;;;7.97;3.05;;;12.50;99.90;;;;;;5011983;28;20053;-71
2023/09/24 02:42:42;;;;;;;7.72;3.20;;;12.60;99.90;;;;;;4994201;28;20053;-70
2023/09/24 02:45:09;;;;;;;6.22;3.25;;;12.60;99.90;;;;;;4994791;28;20128;-70
2023/09/24 02:47:36;;;;;;;7.43;2.92;;;12.60;99.90;;;;;;4995199;28;20041;-70
2023/09/24 02:50:07;;;;;;;4.95;2.90;;;12.60;99.90;;;;;;4993631;28;20050;-70
2023/09/24 02:52:33;;;;;;;8.50;3.70;;;12.70;99.90;;;;;;4994623;28;20069;-70
2023/09/24 02:54:59;;;;;;;5.38;3.20;;;12.70;99.90;;;;;;4994846;28;20113;-70
2023/09/24 02:57:25;;;;;;;6.80;3.33;;;12.70;99.90;;;;;;5012062;28;20473;-70
2023/09/24 02:59:50;;;;;;;6.63;3.47;;;12.80;99.90;;;;;;4994043;28;20064;-70
2023/09/24 03:02:16;;;;;;;7.07;3.40;;;12.80;99.90;;;;;;4994701;28;20124;-70
2023/09/24 03:04:42;;;;;;;8.05;3.65;;;12.90;99.90;;;;;;4994073;28;20045;-70
2023/09/24 03:07:09;;;;;;;9.50;3.95;;;12.90;99.90;;;;;;4994382;28;20402;-70
2023/09/24 03:09:34;;;;;;;8.00;4.18;;;12.90;99.90;;;;;;4994100;28;20156;-70
2023/09/24 03:12:00;;;;;;;7.13;4.53;;;12.90;99.90;;;;;;4993679;28;20128;-70
2023/09/24 03:14:25;;;;;;;6.15;3.95;;;12.80;99.90;;;;;;4994876;28;20092;-70
2023/09/24 03:16:51;;;;;;;10.05;4.07;;;12.80;99.90;;;;;;4994281;28;20482;-70
2023/09/24 03:19:18;;;;;;;6.80;3.67;;;12.80;99.90;;;;;;4993998;28;20048;-70
2023/09/24 03:21:43;;;;;;;7.72;3.75;;;12.80;99.90;;;;;;4994635;28;20049;-70
2023/09/24 03:24:11;;;;;;;6.03;3.65;;;12.80;99.90;;;;;;5011751;28;20058;-70
2023/09/24 03:26:37;;;;;;;7.57;4.15;;;12.80;99.90;;;;;;4993837;28;20095;-70
2023/09/24 03:29:03;;;;;;;6.43;3.45;;;12.70;99.90;;;;;;4998085;28;20046;-69
2023/09/24 03:31:29;;;;;;;6.05;4.35;;;12.60;99.90;;;;;;5015169;28;20050;-71
2023/09/24 03:33:54;;;;;;;12.07;4.63;;;12.60;99.90;;;;;;4997935;28;20056;-70
2023/09/24 03:36:20;;;;;;;9.32;4.10;;;12.60;99.90;;;;;;4998130;28;20052;-70
2023/09/24 03:38:46;;;;;;;9.43;3.72;;;12.60;99.90;;;;;;5014723;28;20049;-70
2023/09/24 03:41:12;;;;;;;7.70;4.03;;;12.60;99.90;;;;;;4998124;28;20042;-70
2023/09/24 03:43:37;;;;;;;9.43;4.55;;;12.60;99.90;;;;;;5015481;28;20049;-70
2023/09/24 03:46:04;;;;;;;10.80;4.53;;;12.40;99.90;;;;;;4996661;28;20103;-70
2023/09/24 03:48:30;;;;;;;7.22;3.70;;;12.30;99.90;;;;;;4997847;28;20038;-69
2023/09/24 03:50:59;;;;;;;10.02;4.75;;;12.30;99.90;;;;;;4997212;28;20049;-71
2023/09/24 03:53:43;;;;;;;8.27;4.25;;;12.30;99.90;;;;;;4997007;28;20041;-70
2023/09/24 03:56:08;;;;;;;11.18;3.95;;;12.20;99.90;;;;;;4997643;28;20076;-69
2023/09/24 03:58:37;;;;;;;9.20;4.45;;;12.20;99.90;;;;;;4997579;28;20034;-70
2023/09/24 04:01:10;;;;;;;10.50;4.40;;;12.20;99.90;;;;;;4995653;28;20092;-70
2023/09/24 04:03:37;;;;;;;8.90;4.32;;;12.10;99.90;;;;;;4997046;28;20053;-70
2023/09/24 04:06:12;;;;;;;9.07;3.97;;;12.10;99.90;;;;;;4995938;28;20477;-70
2023/09/24 04:08:41;;;;;;;8.43;4.50;;;12.10;99.90;;;;;;4995815;28;20128;-70
2023/09/24 04:11:12;;;;;;;7.18;4.00;;;12.10;99.90;;;;;;4985848;28;20459;-70
2023/09/24 04:13:38;;;;;;;7.70;4.05;;;12.10;99.90;;;;;;4996771;28;20050;-70
2023/09/24 04:16:13;;;;;;;9.15;4.30;;;12.10;99.90;;;;;;4996701;28;20092;-70
2023/09/24 04:18:43;;;;;;;11.30;4.57;;;12.10;99.90;;;;;;5014703;28;20053;-70
2023/09/24 04:21:19;;;;;;;9.25;4.70;;;12.10;99.90;;;;;;4996134;28;20042;-70
2023/09/24 04:23:45;;;;;;;9.15;4.68;;;12.10;99.90;;;;;;4997171;28;20085;-70
2023/09/24 04:26:21;;;;;;;11.10;5.05;;;12.10;99.90;;;;;;5014589;28;20584;-70
2023/09/24 04:28:50;;;;;;;9.45;4.50;;;12.10;99.90;;;;;;4996162;28;20049;-70
2023/09/24 04:31:16;;;;;;;9.20;4.78;;;12.10;99.90;;;;;;4997060;28;20183;-70
2023/09/24 04:33:42;;;;;;;11.52;4.70;;;12.10;99.90;;;;;;4996832;28;20069;-70
2023/09/24 04:36:11;;;;;;;9.60;4.32;;;12.20;99.90;;;;;;5013276;28;20046;-70
2023/09/24 04:38:37;;;;;;;9.57;4.30;;;12.40;99.90;;;;;;4995376;28;20038;-70
2023/09/24 04:41:03;;;;;;;10.48;4.47;;;12.50;99.90;;;;;;4996253;28;20061;-70
2023/09/24 04:43:29;;;;;;;11.40;4.95;;;12.40;99.90;;;;;;4996342;28;20050;-69
2023/09/24 04:45:55;;;;;;;12.55;4.95;;;12.50;99.90;;;;;;4996542;28;20053;-70
2023/09/24 04:48:21;;;;;;;8.68;4.60;;;12.50;99.90;;;;;;4996444;28;20045;-70
2023/09/24 04:50:46;;;;;;;10.50;4.63;;;12.60;99.90;;;;;;4996160;28;20493;-70
2023/09/24 04:53:12;;;;;;;11.48;4.90;;;12.60;99.90;;;;;;4996710;28;20500;-70
2023/09/24 04:55:38;;;;;;;7.93;5.00;;;12.70;99.90;;;;;;4996978;28;20053;-70
2023/09/24 04:58:03;;;;;;;8.32;4.68;;;12.70;99.90;;;;;;4994755;28;20034;-70
2023/09/24 05:00:30;;;;;;;9.68;5.10;;;12.70;99.90;;;;;;4996622;28;20041;-70
2023/09/24 05:02:56;;;;;;;10.57;4.75;;;12.60;99.90;;;;;;4995434;28;20077;-70
2023/09/24 05:05:22;;;;;;;13.25;4.90;;;12.70;99.90;;;;;;4996855;28;20088;-70
2023/09/24 05:07:50;;;;;;;8.88;4.95;;;12.70;99.90;;;;;;4995632;28;20508;-70
2023/09/24 05:10:19;;;;;;;10.20;5.35;;;12.60;99.90;;;;;;4995401;28;20136;-70
2023/09/24 05:12:47;;;;;;;12.82;5.38;;;12.50;99.90;;;;;;4995559;28;20457;-70
2023/09/24 05:15:13;;;;;;;8.68;5.07;;;12.50;99.90;;;;;;4995930;28;20133;-70
2023/09/24 05:17:38;;;;;;;10.57;5.15;;;12.50;99.90;;;;;;5012193;28;20030;-70
2023/09/24 05:20:05;;;;;;;9.63;4.45;;;12.60;99.90;;;;;;4995440;28;20489;-70
2023/09/24 05:22:31;;;;;;;9.90;5.43;;;12.50;99.90;;;;;;4995816;28;20057;-70
2023/09/24 05:24:56;;;;;;;9.63;4.72;;;12.50;99.90;;;;;;4995015;28;20049;-70
2023/09/24 05:27:22;;;;;;;12.85;4.68;;;12.50;99.90;;;;;;4995606;28;20441;-70
2023/09/24 05:29:48;;;;;;;9.95;4.80;;;12.50;99.90;;;;;;4995573;28;20048;-70
2023/09/24 05:32:14;;;;;;;10.63;5.10;;;12.50;99.90;;;;;;4995197;28;20481;-70
2023/09/24 05:34:40;;;;;;;7.93;5.18;;;12.50;99.90;;;;;;4995883;28;20100;-70
2023/09/24 05:37:06;;;;;;;11.50;5.35;;;12.50;99.90;;;;;;4995489;28;20057;-70
2023/09/24 05:39:33;;;;;;;10.43;5.63;;;12.40;99.90;;;;;;5012121;28;20038;-70
2023/09/24 05:41:59;;;;;;;10.63;4.72;;;12.40;99.90;;;;;;4994781;28;20054;-70
2023/09/24 05:44:25;;;;;;;9.55;4.88;;;12.40;99.90;;;;;;4994996;28;20065;-69
2023/09/24 05:46:51;;;;;;;11.85;5.57;;;12.40;99.90;;;;;;4993722;28;20080;-69
2023/09/24 05:49:16;;;;;;;11.00;5.32;;;12.40;99.90;;;;;;4994701;28;20050;-69
2023/09/24 05:51:42;;;;;;;8.65;5.20;;;12.40;99.90;;;;;;4995000;28;20401;-70
2023/09/24 05:54:10;;;;;;;15.57;5.70;;;12.40;99.90;;;;;;4993808;28;20068;-70
2023/09/24 05:56:38;;;;;;;14.20;5.20;;;12.40;99.90;;;;;;4995062;28;20481;-69
2023/09/24 05:59:04;;;;;;;9.68;5.25;;;12.40;99.90;;;;;;4994408;28;20038;-69
2023/09/24 06:01:30;;;;;;;10.57;5.78;;;12.40;99.90;;;;;;4994400;28;20057;-70
2023/09/24 06:03:56;;;;;;;11.07;5.47;;;12.30;99.90;;;;;;4994457;28;20465;-69
2023/09/24 06:06:21;;;;;;;12.20;5.78;;;12.20;99.90;;;;;;4993865;28;20042;-69
2023/09/24 06:08:47;;;;;;;10.32;5.40;;;12.20;99.90;;;;;;4993885;28;20054;-69
2023/09/24 06:11:13;;;;;;;15.23;6.40;;;12.10;99.90;;;;;;5009875;28;20044;-69
2023/09/24 06:13:39;;;;;;;9.60;5.05;;;12.20;99.90;;;;;;4993577;28;20354;-69
2023/09/24 06:16:05;;;;;;;11.80;5.97;;;12.20;99.90;;;;;;4994003;28;20132;-70
2023/09/24 06:18:31;;;;;;;9.73;5.80;;;12.20;99.90;;;;;;4994825;28;20037;-69
2023/09/24 06:20:58;;;;;;;10.05;5.53;;;12.20;99.90;;;;;;5011266;28;20046;-70
2023/09/24 06:23:26;;;;;;;11.15;5.47;;;12.30;99.90;;;;;;4994707;28;20050;-70
2023/09/24 06:25:59;;;;;;;10.32;5.38;;;12.40;99.90;;;;;;4991846;28;20113;-70
2023/09/24 06:28:25;;;;;;;11.70;5.78;;;12.40;99.90;;;;;;4993130;28;20049;-69
2023/09/24 06:31:04;;;;;;;10.30;6.18;;;12.40;99.90;;;;;;4994481;28;20108;-69
2023/09/24 06:33:30;;;;;;;9.65;5.88;;;12.50;99.90;;;;;;4994330;28;20468;-72
2023/09/24 06:35:56;;;;;;;10.07;5.53;;;12.50;99.90;;;;;;4993151;28;20436;-70
2023/09/24 06:38:22;;;;;;;9.00;5.00;;;12.40;99.90;;;;;;4994003;28;20041;-69
2023/09/24 06:41:04;;;;;;;11.30;5.40;;;12.50;99.90;;;;;;4994230;28;20343;-71
2023/09/24 06:43:31;;;;;;;13.70;5.75;;;12.50;99.90;;;;;;4991521;28;20091;-68
2023/09/24 06:45:57;;;;;;;9.63;5.30;;;12.50;99.90;;;;;;4993081;28;20050;-69
2023/09/24 06:48:23;;;;;;;11.30;5.93;;;12.60;99.90;;;;;;4993644;28;20486;-69
2023/09/24 06:50:49;;;;;;;9.38;5.45;;;12.50;99.90;;;;;;4993742;28;20394;-70
2023/09/24 06:53:15;;;;;;;9.00;5.32;;;12.60;99.90;;;;;;4993636;28;20050;-71
2023/09/24 06:55:42;;;;;;;15.05;6.10;;;12.70;99.90;;;;;;4993738;28;20048;-71
2023/09/24 06:58:08;;;;;;;12.18;5.95;;;12.70;99.90;;;;;;4993767;28;20511;-72
2023/09/24 07:00:34;;;;;;;10.50;5.82;;;12.70;99.90;;;;;;4994233;28;20042;-69
2023/09/24 07:02:59;;;;;;;10.88;6.30;;;12.80;99.90;;;;;;5011895;28;20046;-71
2023/09/24 07:05:26;;;;;;;13.65;6.00;;;12.80;99.90;;;;;;4997909;28;20136;-68
2023/09/24 07:07:54;;;;;;;13.77;6.10;;;12.80;99.90;;;;;;4997926;28;20037;-70
2023/09/24 07:10:24;;;;;;;13.00;5.22;;;12.90;99.90;;;;;;4997259;28;20046;-71
2023/09/24 07:12:51;;;;;;;11.07;6.00;;;13.00;99.90;;;;;;4997848;28;20053;-72
2023/09/24 07:15:17;;;;;;;10.27;6.00;;;13.20;99.90;;;;;;4998421;28;20052;-71
2023/09/24 07:17:43;;;;;;;12.15;6.20;;;13.20;99.90;;;;;;4997533;28;20046;-70
2023/09/24 07:20:09;;;;;;;11.55;5.68;;;13.50;99.90;;;;;;4998175;28;20045;-71
2023/09/24 07:22:35;;;;;;;10.77;6.07;;;13.30;99.90;;;;;;4996886;28;20505;-72
2023/09/24 07:25:01;;;;;;;12.27;6.22;;;13.50;99.90;;;;;;4996486;28;20133;-72
2023/09/24 07:27:26;;;;;;;12.70;6.18;;;13.60;99.90;;;;;;4997870;28;20061;-73
2023/09/24 07:29:52;;;;;;;11.15;6.68;;;13.80;99.90;;;;;;4997777;28;20128;-76
2023/09/24 07:32:18;;;;;;;12.32;5.82;;;14.00;99.90;;;;;;4996623;28;20125;-77
2023/09/24 07:34:46;;;;;;;11.57;5.80;;;14.70;99.90;;;;;;4997214;28;20149;-79
2023/09/24 07:37:13;;;;;;;9.35;5.00;;;15.70;99.90;;;;;;4997393;28;20061;-75
2023/09/24 07:39:39;;;;;;;9.88;4.75;;;16.70;99.90;;;;;;4997286;28;20054;-74
2023/09/24 07:42:06;;;;;;;9.02;4.32;;;17.30;99.90;;;;;;4997322;28;20478;-70
2023/09/24 07:44:32;;;;;;;10.95;4.72;;;17.70;99.90;;;;;;5014582;28;20069;-72
2023/09/24 07:46:58;;;;;;;10.82;4.53;;;18.10;99.90;;;;;;4996204;28;20485;-73
2023/09/24 07:49:27;;;;;;;8.98;4.55;;;18.10;99.90;;;;;;4997378;28;20076;-73
2023/09/24 07:51:53;;;;;;;9.77;4.15;;;17.90;99.90;;;;;;4996292;28;20046;-74
2023/09/24 07:54:19;;;;;;;8.93;4.10;;;17.70;99.90;;;;;;4997151;28;20124;-73
2023/09/24 07:56:45;;;;;;;8.57;4.15;;;17.90;99.90;;;;;;4994370;28;20125;-75
2023/09/24 07:59:11;;;;;;;8.68;3.80;;;18.30;99.90;;;;;;4996302;28;20065;-77
2023/09/24 08:01:37;;;;;;;7.75;3.75;;;18.80;99.90;;;;;;5014355;28;20449;-80
2023/09/24 08:04:03;;;;;;;8.00;3.72;;;19.50;99.90;;;;;;4996071;28;20042;-81
2023/09/24 08:06:29;;;;;;;8.30;3.72;;;20.00;99.90;;;;;;4995830;28;20489;-80
2023/09/24 08:08:56;;;;;;;8.73;3.33;;;20.50;99.90;;;;;;4996788;28;20049;-84
2023/09/24 08:11:25;;;;;;;7.97;3.30;;;21.20;99.90;;;;;;4996738;28;20405;-78
2023/09/24 08:13:51;;;;;;;6.47;3.53;;;21.30;99.90;;;;;;4995563;28;20057;-81
2023/09/24 08:16:17;;;;;;;7.45;3.30;;;21.30;99.90;;;;;;4997333;28;20073;-82
2023/09/24 08:18:46;;;;;;;7.45;3.53;;;21.40;99.90;;;;;;4997330;28;20200;-78
2023/09/24 08:21:12;;;;;;;7.20;3.25;;;21.00;99.90;;;;;;4996291;28;20038;-83
2023/09/24 08:23:38;;;;;;;6.70;3.10;;;21.00;99.90;;;;;;4996743;28;20054;-78
2023/09/24 08:26:03;;;;;;;6.75;2.95;;;21.10;99.90;;;;;;4995836;28;20062;-78
2023/09/24 08:28:29;;;;;;;8.50;3.20;;;20.70;99.90;;;;;;4995955;28;20044;-75
2023/09/24 08:30:55;;;;;;;7.88;2.65;;;21.70;99.90;;;;;;4996344;28;20481;-79
2023/09/24 08:33:20;;;;;;;5.72;2.30;;;21.70;99.90;;;;;;4996780;28;20038;-78
2023/09/24 08:35:46;;;;;;;4.85;1.88;;;21.50;99.90;;;;;;4995902;28;20038;-76
2023/09/24 08:38:13;;;;;;;5.35;1.88;;;21.60;99.90;;;;;;4996512;28;20096;-76
2023/09/24 08:40:39;;;;;;;5.70;1.90;;;21.70;99.90;;;;;;4996489;28;20050;-74
2023/09/24 08:43:09;;;;;;;4.95;2.00;;;21.90;99.90;;;;;;4995735;28;20045;-78
2023/09/24 08:45:35;;;;;;;6.40;2.22;;;21.30;99.90;;;;;;4996785;28;20043;-84
2023/09/24 08:48:07;;;;;;;5.15;1.83;;;20.90;99.90;;;;;;4995108;28;20446;-76
2023/09/24 08:50:37;;;;;;;8.43;2.13;;;20.80;99.90;;;;;;4996065;28;20129;-77
2023/09/24 08:53:07;;;;;;;6.15;1.90;;;20.30;99.90;;;;;;4996050;28;20049;-78
2023/09/24 08:55:33;;;;;;;7.60;2.05;;;20.00;99.90;;;;;;4995600;28;20045;-84
2023/09/24 08:57:58;;;;;;;6.25;1.95;;;19.80;99.90;;;;;;4995494;28;20034;-79
2023/09/24 09:00:24;;;;;;;5.85;2.15;;;19.70;99.90;;;;;;4995196;28;20045;-79
2023/09/24 09:02:50;;;;;;;4.82;1.77;;;20.10;99.90;;;;;;4988332;28;20129;-77
2023/09/24 09:05:26;;;;;;;5.57;2.00;;;21.10;99.90;;;;;;4997559;28;20054;-81
2023/09/24 09:07:59;;;;;;;5.22;1.90;;;21.70;99.90;;;;;;5009570;28;20066;-82
2023/09/24 09:10:33;;;;;;;5.53;2.08;;;22.50;99.80;;;;;;4992297;28;20370;-84
2023/09/24 09:13:10;;;;;;;4.57;1.80;;;23.40;98.90;;;;;;4993413;28;20100;-77
2023/09/24 09:15:39;;;;;;;5.82;2.00;;;24.20;97.20;;;;;;4993717;28;20041;-79
2023/09/24 09:18:06;;;;;;;3.83;1.50;;;24.50;96.70;;;;;;4994154;28;20048;-82
2023/09/24 09:20:43;;;;;;;5.45;1.80;;;24.70;95.10;;;;;;4992647;28;20465;-79
2023/09/24 09:23:11;;;;;;;8.00;1.75;;;24.60;94.00;;;;;;4988835;28;20382;-81
2023/09/24 09:25:50;;;;;;;7.80;1.98;;;24.80;94.40;;;;;;4992245;28;20073;-82
2023/09/24 09:28:20;;;;;;;5.32;1.70;;;24.20;92.10;;;;;;4994896;28;20048;-80
2023/09/24 09:30:59;;;;;;;4.80;1.67;;;25.10;92.80;;;;;;4994619;28;20093;-80
2023/09/24 09:33:29;;;;;;;6.10;1.70;;;24.30;92.70;;;;;;5001470;28;20050;-77
2023/09/24 09:35:57;;;;;;;4.75;1.77;;;24.20;93.20;;;;;;5007588;28;20100;-75
2023/09/24 09:38:24;;;;;;;7.70;2.13;;;23.90;93.40;;;;;;5002184;28;20038;-89
2023/09/24 09:40:55;;;;;;;4.78;1.75;;;23.50;93.70;;;;;;4988252;28;20548;-88
2023/09/24 09:43:26;;;;;;;4.72;1.75;;;23.50;94.10;;;;;;5004090;28;20042;-78
2023/09/24 09:45:54;;;;;;;5.95;2.22;;;24.70;94.80;;;;;;5010676;28;20057;-77
2023/09/24 09:48:30;;;;;;;4.32;1.95;;;23.70;94.40;;;;;;4995597;28;20073;-81
2023/09/24 09:51:07;;;;;;;4.63;2.13;;;24.10;94.10;;;;;;4991813;28;20053;-81
2023/09/24 09:53:37;;;;;;;4.40;1.70;;;24.10;93.70;;;;;;4994965;28;20056;-79
2023/09/24 09:56:23;;;;;;;5.40;1.92;;;24.50;93.60;;;;;;4995406;28;20042;-80
2023/09/24 09:58:51;;;;;;;3.90;1.73;;;24.50;93.30;;;;;;4993923;28;20054;-79
2023/09/24 10:01:20;;;;;;;5.85;2.00;;;24.50;93.10;;;;;;4994400;28;20121;-89
2023/09/24 10:03:48;;;;;;;5.10;1.67;;;24.50;93.40;;;;;;4987226;28;20054;-75
2023/09/24 10:06:17;;;;;;;4.95;1.90;;;24.40;92.70;;;;;;4978383;28;20046;-84
2023/09/24 10:08:45;;;;;;;5.47;2.22;;;24.60;92.80;;;;;;5008547;28;20473;-74
2023/09/24 10:11:32;;;;;;;6.63;2.13;;;24.50;92.90;;;;;;4992320;28;20565;-79
2023/09/24 10:14:04;;;;;;;5.88;2.13;;;24.50;92.70;;;;;;4979221;28;20047;-77
2023/09/24 10:16:33;;;;;;;5.85;2.15;;;24.50;93.00;;;;;;4990949;28;20124;-80
2023/09/24 10:19:06;;;;;;;7.60;2.75;;;24.60;93.00;;;;;;4981641;28;20061;-75
2023/09/24 10:21:36;;;;;;;6.88;2.10;;;24.70;93.50;;;;;;4992087;28;20107;-80
2023/09/24 10:24:14;;;;;;;9.05;2.10;;;24.90;92.90;;;;;;4989544;28;20120;-81
2023/09/24 10:27:01;;;;;;;5.75;2.10;;;24.70;92.80;;;;;;4992459;28;20124;-80
2023/09/24 10:29:45;;;;;;;8.10;1.88;;;24.90;92.80;;;;;;4988388;28;20061;-81
2023/09/24 10:32:24;;;;;;;4.68;1.98;;;25.30;92.60;;;;;;4994206;28;20450;-86
2023/09/24 10:34:55;;;;;;;5.63;2.00;;;25.90;92.60;;;;;;4974495;28;20045;-84
2023/09/24 10:37:25;;;;;;;5.72;2.08;;;25.70;91.70;;;;;;4976987;28;20073;-82
2023/09/24 10:42:27;;;;;;;5.25;1.63;;;25.50;91.50;;;;;;4998435;28;20057;-80
2023/09/24 10:45:08;;;;;;;6.25;1.95;;;25.80;90.90;;;;;;4994647;28;20065;-79
2023/09/24 10:47:44;;;;;;;5.30;1.90;;;25.70;90.90;;;;;;4978723;28;20589;-81
2023/09/24 10:50:13;;;;;;;3.97;1.95;;;25.60;92.30;;;;;;4979255;28;20065;-78
2023/09/24 10:52:54;;;;;;;6.18;1.98;;;25.00;91.90;;;;;;4979632;28;20093;-79
2023/09/24 10:55:36;;;;;;;5.65;2.08;;;25.20;91.10;;;;;;5003105;28;20056;-79
2023/09/24 10:58:15;;;;;;;5.25;1.88;;;24.80;91.60;;;;;;4997635;28;20038;-80
2023/09/24 11:00:51;;;;;;;5.15;1.83;;;24.50;91.80;;;;;;4982358;28;20375;-80
2023/09/24 11:03:17;;;;;;;4.53;1.63;;;24.20;92.10;;;;;;4986429;28;20486;-79
2023/09/24 11:05:45;;;;;;;6.53;1.70;;;24.00;92.50;;;;;;4995159;28;20056;-80
2023/09/24 11:08:13;;;;;;;7.30;1.77;;;23.90;92.70;;;;;;4995094;28;20042;-80
2023/09/24 11:10:39;;;;;;;5.95;1.85;;;24.40;92.40;;;;;;4994397;28;20074;-81
2023/09/24 11:13:06;;;;;;;7.25;2.00;;;23.80;92.10;;;;;;4994711;28;20070;-80
2023/09/24 11:15:33;;;;;;;4.10;1.65;;;23.90;92.70;;;;;;4997524;28;20042;-81
2023/09/24 11:18:02;;;;;;;4.53;1.52;;;23.80;91.80;;;;;;4992723;28;20045;-82
2023/09/24 11:20:32;;;;;;;4.32;1.48;;;23.40;92.40;;;;;;4994273;28;20084;-79
2023/09/24 11:23:01;;;;;;;4.43;1.83;;;23.50;91.90;;;;;;4996567;28;20572;-80
2023/09/24 11:25:28;;;;;;;6.78;1.90;;;23.30;92.40;;;;;;4997740;28;20436;-79
2023/09/24 11:27:59;;;;;;;4.68;1.55;;;23.00;93.10;;;;;;4997434;28;20056;-79
2023/09/24 11:30:38;;;;;;;7.10;2.45;;;22.90;92.30;;;;;;4997460;28;20041;-76
2023/09/24 11:33:17;;;;;;;6.72;1.90;;;22.30;93.60;;;;;;4997162;28;20121;-77
2023/09/24 11:35:44;;;;;;;4.40;1.67;;;22.20;93.90;;;;;;4998072;28;20053;-76
2023/09/24 11:38:10;;;;;;;5.55;1.90;;;22.00;93.50;;;;;;4997158;28;20100;-78
2023/09/24 11:40:38;;;;;;;6.18;1.90;;;22.10;93.90;;;;;;4997105;28;20077;-77
2023/09/24 11:43:10;;;;;;;6.63;1.85;;;22.00;93.70;;;;;;4997336;28;20424;-77
2023/09/24 11:45:50;;;;;;;7.50;1.92;;;22.40;93.60;;;;;;4997307;28;20058;-78
2023/09/24 11:48:18;;;;;;;3.58;1.40;;;22.90;93.20;;;;;;4996905;28;20056;-78
2023/09/24 11:50:57;;;;;;;4.65;1.55;;;23.40;92.40;;;;;;4996769;28;20042;-77
2023/09/24 11:53:25;;;;;;;3.60;1.58;;;23.50;91.90;;;;;;4997773;28;20115;-76
2023/09/24 11:55:54;;;;;;;4.25;1.67;;;23.40;92.70;;;;;;4997144;28;20041;-76
2023/09/24 11:58:23;;;;;;;4.35;1.77;;;23.40;92.40;;;;;;5014341;28;20054;-77
2023/09/24 12:00:49;;;;;;;4.93;1.65;;;23.20;91.50;;;;;;4996986;28;20057;-74
2023/09/24 12:03:14;;;;;;;5.43;1.58;;;23.20;92.20;;;;;;4997207;28;20046;-74
2023/09/24 12:05:44;;;;;;;3.97;1.60;;;23.00;93.00;;;;;;4994488;28;20042;-74
2023/09/24 12:08:10;;;;;;;5.13;1.90;;;23.10;93.20;;;;;;4995573;28;20099;-73
2023/09/24 12:10:38;;;;;;;4.25;1.75;;;23.00;93.30;;;;;;4995908;28;20085;-73
2023/09/24 12:13:04;;;;;;;4.80;1.85;;;23.00;93.20;;;;;;5009072;28;20038;-75
2023/09/24 12:15:31;;;;;;;4.78;1.85;;;22.80;92.70;;;;;;4989773;28;20046;-76
2023/09/24 12:17:59;;;;;;;5.43;1.70;;;22.60;92.90;;;;;;4995309;28;20053;-77
2023/09/24 12:20:25;;;;;;;5.40;1.52;;;22.70;93.40;;;;;;4995981;28;20072;-77
2023/09/24 12:22:51;;;;;;;5.80;1.83;;;22.80;94.00;;;;;;4995262;28;20061;-77
2023/09/24 12:25:17;;;;;;;4.43;1.42;;;22.10;94.20;;;;;;4988315;28;20054;-78
2023/09/24 12:27:44;;;;;;;5.90;1.70;;;22.20;93.80;;;;;;4989423;28;20038;-77
2023/09/24 12:30:11;;;;;;;4.45;1.65;;;22.10;94.20;;;;;;4988771;28;20602;-77
2023/09/24 12:32:41;;;;;;;6.22;1.90;;;21.80;95.00;;;;;;4996798;28;20069;-77
2023/09/24 12:35:09;;;;;;;6.13;1.65;;;21.70;95.10;;;;;;4992382;28;20585;-77
2023/09/24 12:37:41;;;;;;;5.55;1.80;;;21.90;94.90;;;;;;4990548;28;20050;-77
2023/09/24 12:40:10;;;;;;;3.92;1.60;;;22.60;94.60;;;;;;4995215;28;20061;-77
2023/09/24 12:42:40;;;;;;;4.82;1.58;;;23.10;94.00;;;;;;4995214;28;20651;-77
2023/09/24 12:45:10;;;;;;;3.63;1.30;;;23.50;93.10;;;;;;5009916;28;20057;-77
2023/09/24 12:47:37;;;;;;;6.95;1.70;;;23.80;92.90;;;;;;4991091;28;20065;-77
2023/09/24 12:50:05;;;;;;;4.35;1.35;;;23.60;93.10;;;;;;4990574;28;20042;-78
2023/09/24 12:52:35;;;;;;;4.05;1.63;;;23.60;93.30;;;;;;4988652;28;20371;-78
2023/09/24 12:55:03;;;;;;;3.97;1.48;;;23.30;92.90;;;;;;4986487;28;20048;-77